Wrightsville, Georgia
Current Conditions -  °F | °C
As of 5:55 PM on Thursday 27 Nov 2014 (Local Time) from KOKZ Reporting Station
Clear Clear  
Wind Chill: 42°   Ceiling: Unl
Heat Index: 45°   Visibility: 10mi
Dew Point: 31°   Wind: 6mph
Humidity: 58%   Direction: 310°NW
Pressure: 30.3"   Gusts: NA
Location:  32.73°N, 82.72°W
Report Text: KOKZ 272255Z AUTO 31005KT 10SM CLR 07/00 A3030 RMK AO2 T00731005
Loading
Personal Weather Stations






























Interactive Weather Map New forecast layout! Learn more

10-Day Weather Forecast

Advertisements
Track Severe Weather on mobile